Time;durP1;ratioP1;P1;durP2;ratioP2;P2;SDS_P1;SDS_P2;PMS_P1;PMS_P2;Temp;Humidity;BMP_temperature;BMP_pressure;BME280_temperature;BME280_humidity;BME280_pressure;Samples;Min_cycle;Max_cycle;Signal;HPM_P1;HPM_P2
2022/08/06 00:00:52;;;;;;;3.00;2.80;;;;;;;20.56;100.00;96675.94;5032368;28;106105;-62
2022/08/06 00:03:19;;;;;;;3.43;3.13;;;;;;;20.65;100.00;96667.88;5031016;28;101811;-62
2022/08/06 00:05:47;;;;;;;4.40;3.10;;;;;;;20.60;100.00;96679.59;5030919;27;102402;-62
2022/08/06 00:08:16;;;;;;;3.40;3.20;;;;;;;20.59;100.00;96685.31;5030203;28;103241;-62
2022/08/06 00:10:42;;;;;;;4.27;2.80;;;;;;;20.66;100.00;96674.88;5030752;28;101933;-62
2022/08/06 00:13:10;;;;;;;3.83;3.50;;;;;;;20.69;100.00;96675.06;5030867;28;102567;-62
2022/08/06 00:15:37;;;;;;;4.30;3.43;;;;;;;20.78;100.00;96683.22;5028129;28;105495;-62
2022/08/06 00:18:04;;;;;;;3.37;3.17;;;;;;;20.71;100.00;96689.06;5029352;28;102025;-62
2022/08/06 00:20:31;;;;;;;3.53;3.10;;;;;;;20.66;100.00;96701.91;5032142;28;105388;-62
2022/08/06 00:22:59;;;;;;;3.33;3.10;;;;;;;20.66;100.00;96708.09;5030190;28;101886;-62
2022/08/06 00:25:28;;;;;;;4.00;3.70;;;;;;;20.51;100.00;96716.56;5028823;28;105707;-62
2022/08/06 00:27:55;;;;;;;3.60;3.30;;;;;;;20.51;100.00;96718.47;5029891;28;102592;-62
2022/08/06 00:30:22;;;;;;;3.50;3.20;;;;;;;20.40;100.00;96717.91;5029076;28;101902;-62
2022/08/06 00:32:51;;;;;;;3.57;3.30;;;;;;;20.45;100.00;96725.91;5030598;27;102282;-62
2022/08/06 00:35:19;;;;;;;3.40;3.10;;;;;;;20.50;100.00;96730.38;5029475;28;103102;-62
2022/08/06 00:37:46;;;;;;;3.67;3.37;;;;;;;20.45;100.00;96733.19;5030361;28;101814;-62
2022/08/06 00:40:15;;;;;;;3.80;3.50;;;;;;;20.31;100.00;96740.53;5028973;28;105934;-62
2022/08/06 00:42:45;;;;;;;5.50;4.27;;;;;;;20.11;100.00;96743.66;5031776;28;105278;-62
2022/08/06 00:45:12;;;;;;;3.80;3.60;;;;;;;20.01;100.00;96751.94;5028973;28;105201;-62
2022/08/06 00:47:39;;;;;;;4.17;3.77;;;;;;;19.89;100.00;96762.44;5027983;28;105796;-62
2022/08/06 00:50:07;;;;;;;5.23;4.37;;;;;;;19.92;100.00;96765.34;5028862;28;101952;-62
2022/08/06 00:52:35;;;;;;;4.13;3.83;;;;;;;19.87;100.00;96788.91;5028852;28;105133;-60
2022/08/06 00:55:02;;;;;;;3.57;3.37;;;;;;;19.82;100.00;96794.41;5029609;28;103120;-60
2022/08/06 00:57:29;;;;;;;3.70;3.40;;;;;;;19.89;100.00;96792.13;5030014;28;101998;-60
2022/08/06 00:59:57;;;;;;;3.90;3.60;;;;;;;19.84;100.00;96797.63;5028626;28;105202;-60
2022/08/06 01:02:24;;;;;;;4.60;4.13;;;;;;;19.91;100.00;96804.25;5029356;28;102695;-60
2022/08/06 01:04:51;;;;;;;3.60;3.30;;;;;;;19.83;100.00;96801.44;5033080;27;101854;-60
2022/08/06 01:07:19;;;;;;;4.17;3.80;;;;;;;19.85;100.00;96804.63;5032332;28;103132;-60
2022/08/06 01:09:46;;;;;;;4.10;3.80;;;;;;;19.76;100.00;96807.22;5033679;28;101852;-60
2022/08/06 01:12:13;;;;;;;3.60;3.30;;;;;;;19.86;100.00;96796.22;5033782;27;102422;-60
2022/08/06 01:14:40;;;;;;;3.17;2.87;;;;;;;19.79;100.00;96787.72;5033090;28;102569;-60
2022/08/06 01:17:18;;;;;;;2.80;2.60;;;;;;;19.84;100.00;96786.84;5033224;27;101863;-60
2022/08/06 01:19:52;;;;;;;2.90;2.70;;;;;;;19.87;100.00;96787.03;5033657;28;102372;-60
2022/08/06 01:22:50;;;;;;;2.60;2.40;;;;;;;19.94;100.00;96792.81;5031617;28;103810;-60
2022/08/06 01:25:38;;;;;;;2.20;2.10;;;;;;;20.00;100.00;96785.44;5033513;28;101714;-60
2022/08/06 01:28:13;;;;;;;2.47;2.33;;;;;;;19.92;100.00;96795.03;5036498;28;102871;-60
2022/08/06 01:30:49;;;;;;;2.40;2.20;;;;;;;19.96;100.00;96789.84;5033327;28;101893;-60
2022/08/06 01:33:21;;;;;;;2.40;2.20;;;;;;;19.81;100.00;96784.72;5033434;28;102854;-60
2022/08/06 01:35:52;;;;;;;2.20;2.10;;;;;;;19.87;100.00;96775.44;5032580;28;102896;-60
2022/08/06 01:38:25;;;;;;;1.93;1.80;;;;;;;19.94;100.00;96773.94;5033099;27;101852;-60
2022/08/06 01:40:54;;;;;;;2.00;1.80;;;;;;;19.95;100.00;96772.03;5033232;27;102808;-60
2022/08/06 01:43:23;;;;;;;1.90;1.70;;;;;;;19.95;100.00;96764.72;5032558;28;103167;-60
2022/08/06 01:45:53;;;;;;;2.30;2.07;;;;;;;19.95;100.00;96767.44;5033389;28;101707;-60
2022/08/06 01:48:24;;;;;;;2.13;1.90;;;;;;;19.98;100.00;96756.03;5032896;28;102400;-60
2022/08/06 01:50:56;;;;;;;3.37;1.77;;;;;;;20.04;100.00;96754.84;5036120;28;102676;-60
2022/08/06 01:53:29;;;;;;;1.70;1.60;;;;;;;20.10;100.00;96742.84;5032841;28;102340;-60
2022/08/06 01:56:01;;;;;;;2.10;2.00;;;;;;;20.11;100.00;96743.66;5030940;28;105793;-60
2022/08/06 01:58:34;;;;;;;2.20;2.00;;;;;;;20.13;100.00;96736.06;5033134;28;101776;-60
2022/08/06 02:01:04;;;;;;;1.80;1.70;;;;;;;20.16;100.00;96735.47;5032961;28;102745;-60
2022/08/06 02:03:34;;;;;;;2.07;1.97;;;;;;;20.15;100.00;96726.56;5030567;28;106726;-60
2022/08/06 02:06:02;;;;;;;2.53;2.30;;;;;;;20.13;100.00;96711.75;5031455;28;102375;-60
2022/08/06 02:08:35;;;;;;;2.13;2.00;;;;;;;20.14;100.00;96710.63;5032758;28;102568;-60
2022/08/06 02:11:04;;;;;;;2.00;1.90;;;;;;;20.08;100.00;96706.47;5030828;28;105783;-60
2022/08/06 02:13:35;;;;;;;1.93;1.83;;;;;;;20.11;100.00;96700.47;5034479;28;101720;-60
2022/08/06 02:16:04;;;;;;;2.17;1.97;;;;;;;20.16;100.00;96705.75;5031833;28;102551;-60
2022/08/06 02:18:37;;;;;;;2.20;1.93;;;;;;;20.18;100.00;96714.34;5031069;27;101993;-60
2022/08/06 02:21:07;;;;;;;2.90;2.10;;;;;;;20.05;100.00;96709.75;5031311;28;105396;-60
2022/08/06 02:23:35;;;;;;;1.97;1.87;;;;;;;20.14;100.00;96707.94;5031858;28;102567;-60
2022/08/06 02:26:04;;;;;;;2.20;2.00;;;;;;;20.20;100.00;96704.84;5030934;28;102323;-60
2022/08/06 02:28:35;;;;;;;2.10;2.00;;;;;;;20.16;100.00;96717.34;5030886;28;105963;-60
2022/08/06 02:31:03;;;;;;;2.57;2.13;;;;;;;20.18;100.00;96712.47;5031892;28;102652;-60
2022/08/06 02:33:31;;;;;;;2.40;2.20;;;;;;;20.21;100.00;96711.06;5035706;27;101875;-60
2022/08/06 02:36:05;;;;;;;1.80;1.77;;;;;;;20.11;100.00;96711.25;5031759;28;103182;-60
2022/08/06 02:38:37;;;;;;;2.30;1.90;;;;;;;20.03;100.00;96707.34;5030831;28;102245;-60
2022/08/06 02:41:12;;;;;;;2.57;2.37;;;;;;;20.02;100.00;96707.63;5032330;28;102348;-60
2022/08/06 02:43:49;;;;;;;2.43;2.27;;;;;;;19.93;100.00;96709.44;5031960;28;103176;-60
2022/08/06 02:46:23;;;;;;;2.40;2.20;;;;;;;19.94;100.00;96706.44;5032405;28;102006;-60
2022/08/06 02:48:54;;;;;;;2.43;2.23;;;;;;;19.88;100.00;96714.94;5032132;28;103060;-60
2022/08/06 02:51:27;;;;;;;2.40;2.30;;;;;;;19.82;100.00;96724.22;5030184;28;105882;-60
2022/08/06 02:53:59;;;;;;;3.83;2.10;;;;;;;19.59;100.00;96720.66;5032211;28;101748;-60
2022/08/06 02:56:28;;;;;;;2.30;1.80;;;;;;;19.73;100.00;96726.06;5034730;28;102836;-60
2022/08/06 02:58:58;;;;;;;2.27;2.10;;;;;;;19.76;100.00;96725.44;5032227;27;101991;-60
2022/08/06 03:01:29;;;;;;;2.00;1.90;;;;;;;19.83;100.00;96723.16;5032039;28;102352;-60
2022/08/06 03:03:59;;;;;;;2.00;1.90;;;;;;;19.82;100.00;96714.25;5030871;28;103596;-62
2022/08/06 03:06:28;;;;;;;2.00;1.90;;;;;;;19.82;100.00;96708.03;5030588;28;102204;-62
2022/08/06 03:08:57;;;;;;;2.20;2.00;;;;;;;19.89;100.00;96711.16;5030391;28;106043;-62
2022/08/06 03:11:26;;;;;;;3.13;2.13;;;;;;;19.91;100.00;96712.47;5031089;27;104306;-62
2022/08/06 03:13:55;;;;;;;2.40;2.20;;;;;;;19.75;100.00;96713.06;5031760;28;101852;-62
2022/08/06 03:16:27;;;;;;;2.37;2.17;;;;;;;19.82;100.00;96711.56;5031474;28;102434;-62
2022/08/06 03:18:56;;;;;;;2.00;1.90;;;;;;;19.87;100.00;96716.03;5034792;28;102582;-62
2022/08/06 03:21:24;;;;;;;2.27;2.07;;;;;;;19.85;100.00;96712.84;5031545;28;102532;-62
2022/08/06 03:23:53;;;;;;;2.17;2.03;;;;;;;19.82;100.00;96708.03;5029025;28;105415;-62
2022/08/06 03:26:21;;;;;;;2.17;2.07;;;;;;;19.82;100.00;96708.84;5031503;28;101874;-62
2022/08/06 03:28:48;;;;;;;2.20;2.00;;;;;;;19.89;100.00;96708.47;5030828;27;102628;-62
2022/08/06 03:31:16;;;;;;;1.90;1.80;;;;;;;19.87;100.00;96711.44;5030681;28;102674;-62
2022/08/06 03:33:45;;;;;;;1.90;1.80;;;;;;;19.82;100.00;96708.84;5031317;28;101929;-62
2022/08/06 03:36:13;;;;;;;2.87;1.87;;;;;;;19.83;100.00;96698.88;5030079;28;105372;-62
2022/08/06 03:38:46;;;;;;;2.00;1.90;;;;;;;19.81;100.00;96706.44;5030426;27;102562;-62
2022/08/06 03:41:14;;;;;;;2.30;1.83;;;;;;;19.81;100.00;96698.34;5033377;28;102110;-62
2022/08/06 03:43:41;;;;;;;2.73;1.90;;;;;;;19.73;100.00;96705.25;5029232;28;105615;-62
2022/08/06 03:46:08;;;;;;;1.60;1.50;;;;;;;19.76;100.00;96698.44;5029892;28;101991;-62
2022/08/06 03:48:39;;;;;;;1.70;1.60;;;;;;;19.75;100.00;96703.06;5029798;28;105706;-62
2022/08/06 03:51:16;;;;;;;2.83;2.20;;;;;;;19.66;100.00;96704.84;5028918;28;105536;-62
2022/08/06 03:53:46;;;;;;;1.83;1.70;;;;;;;19.54;100.00;96719.94;5031319;28;102250;-62
2022/08/06 03:56:17;;;;;;;2.07;1.70;;;;;;;19.46;100.00;96716.03;5031266;27;102305;-62
2022/08/06 03:58:46;;;;;;;2.13;1.93;;;;;;;19.47;100.00;96722.22;5028950;28;106394;-62
2022/08/06 04:01:17;;;;;;;2.17;1.97;;;;;;;19.47;100.00;96719.53;5030789;28;101842;-62
2022/08/06 04:03:46;;;;;;;2.20;2.00;;;;;;;19.44;100.00;96730.91;5033915;28;102556;-62
2022/08/06 04:06:18;;;;;;;2.23;2.10;;;;;;;19.39;100.00;96731.00;5030989;28;102124;-62
2022/08/06 04:08:46;;;;;;;2.23;2.03;;;;;;;19.33;100.00;96734.88;5031101;28;102590;-62
2022/08/06 04:11:13;;;;;;;2.80;2.20;;;;;;;19.27;100.00;96734.19;5030206;28;103196;-62
2022/08/06 04:13:41;;;;;;;2.50;2.30;;;;;;;19.30;100.00;96730.88;5030299;28;101830;-62
2022/08/06 04:16:09;;;;;;;2.33;2.23;;;;;;;19.24;100.00;96742.06;5030566;28;102965;-62
2022/08/06 04:18:39;;;;;;;2.53;2.20;;;;;;;19.28;100.00;96735.78;5028643;28;105554;-62
2022/08/06 04:21:11;;;;;;;2.43;2.23;;;;;;;19.31;100.00;96731.69;5029168;28;101929;-62
2022/08/06 04:23:40;;;;;;;2.10;2.00;;;;;;;19.28;100.00;96734.97;5028370;28;104877;-62
2022/08/06 04:26:10;;;;;;;2.10;2.00;;;;;;;19.30;100.00;96735.50;5033294;27;102128;-62
2022/08/06 04:28:41;;;;;;;2.40;2.10;;;;;;;19.20;100.00;96741.84;5029069;28;104044;-62
2022/08/06 04:31:09;;;;;;;2.60;2.40;;;;;;;19.12;100.00;96744.41;5029881;28;102792;-62
2022/08/06 04:33:38;;;;;;;2.67;2.47;;;;;;;19.17;100.00;96755.09;5030428;28;101796;-62
2022/08/06 04:36:09;;;;;;;3.47;2.20;;;;;;;19.17;100.00;96760.47;5030796;27;102440;-62
2022/08/06 04:38:37;;;;;;;2.60;2.40;;;;;;;19.16;100.00;96759.69;5028217;28;105773;-62
2022/08/06 04:41:06;;;;;;;2.27;2.10;;;;;;;19.19;100.00;96758.31;5029376;27;102192;-62
2022/08/06 04:43:34;;;;;;;2.53;2.30;;;;;;;19.21;100.00;96764.19;5029920;27;102321;-62
2022/08/06 04:46:03;;;;;;;2.57;2.37;;;;;;;19.37;100.00;96765.56;5031930;28;105652;-62
2022/08/06 04:48:30;;;;;;;2.23;2.13;;;;;;;19.43;100.00;96769.78;5030268;28;101757;-63
2022/08/06 04:50:57;;;;;;;2.60;2.40;;;;;;;19.41;100.00;96761.19;5028409;28;104110;-62
2022/08/06 04:53:25;;;;;;;2.43;2.33;;;;;;;19.46;100.00;96763.81;5028774;28;102112;-62
2022/08/06 04:55:52;;;;;;;3.13;2.10;;;;;;;19.46;100.00;96772.69;5030442;28;102347;-62
2022/08/06 04:58:21;;;;;;;2.40;2.20;;;;;;;19.52;100.00;96774.19;5029307;27;102844;-62
2022/08/06 05:00:50;;;;;;;2.60;2.40;;;;;;;19.57;100.00;96774.09;5028715;28;101816;-62
2022/08/06 05:03:17;;;;;;;2.70;2.20;;;;;;;19.61;100.00;96777.03;5030084;28;102381;-62
2022/08/06 05:05:48;;;;;;;2.90;2.17;;;;;;;19.40;100.00;96789.25;5029466;28;102613;-62
2022/08/06 05:08:16;;;;;;;2.30;2.20;;;;;;;19.58;100.00;96793.78;5032147;28;101802;-62
2022/08/06 05:10:49;;;;;;;2.83;2.40;;;;;;;19.41;100.00;96788.16;5027795;28;105970;-62
2022/08/06 05:13:19;;;;;;;2.60;2.40;;;;;;;19.49;100.00;96796.38;5028542;28;101928;-62
2022/08/06 05:15:52;;;;;;;2.80;2.50;;;;;;;19.43;100.00;96802.97;5029892;28;102853;-62
2022/08/06 05:18:25;;;;;;;2.47;2.30;;;;;;;19.46;100.00;96806.97;5029492;28;102986;-62
2022/08/06 05:20:55;;;;;;;2.60;2.47;;;;;;;19.44;100.00;96803.75;5030077;28;101904;-62
2022/08/06 05:23:29;;;;;;;3.13;2.93;;;;;;;19.32;100.00;96814.19;5028163;28;105559;-62
2022/08/06 05:25:56;;;;;;;2.87;2.67;;;;;;;19.34;100.00;96803.94;5027484;28;105426;-62
2022/08/06 05:28:23;;;;;;;2.90;2.70;;;;;;;19.18;100.00;96810.63;5028465;28;101853;-62
2022/08/06 05:30:53;;;;;;;6.27;5.07;;;;;;;19.24;100.00;96812.19;5032510;28;102539;-62
2022/08/06 05:33:24;;;;;;;2.93;2.73;;;;;;;19.20;100.00;96816.53;5028367;28;101879;-62
2022/08/06 05:35:52;;;;;;;3.00;2.80;;;;;;;19.17;100.00;96819.81;5027995;28;105936;-62
2022/08/06 05:38:19;;;;;;;2.97;2.77;;;;;;;19.14;100.00;96825.78;5029112;27;102483;-62
2022/08/06 05:40:46;;;;;;;3.30;3.00;;;;;;;19.19;100.00;96817.63;5029440;28;101914;-62
2022/08/06 05:43:13;;;;;;;3.47;3.17;;;;;;;19.25;100.00;96827.25;5029770;28;102387;-62
2022/08/06 05:45:42;;;;;;;3.30;3.00;;;;;;;19.35;100.00;96824.41;5027489;28;105483;-62
2022/08/06 05:48:13;;;;;;;2.83;2.60;;;;;;;19.41;100.00;96818.63;5029502;28;101857;-62
2022/08/06 05:50:46;;;;;;;2.50;2.30;;;;;;;19.56;100.00;96822.97;5028166;28;106599;-62
2022/08/06 05:53:20;;;;;;;3.87;2.83;;;;;;;19.63;100.00;96823.38;5033500;27;105555;-62
2022/08/06 05:55:52;;;;;;;2.93;2.73;;;;;;;19.42;100.00;96839.13;5033264;28;102940;-62
2022/08/06 05:58:28;;;;;;;2.70;2.50;;;;;;;19.28;100.00;96840.16;5031016;28;105542;-62
2022/08/06 06:00:57;;;;;;;3.47;3.27;;;;;;;19.20;100.00;96843.50;5032651;28;101960;-62
2022/08/06 06:03:27;;;;;;;3.90;3.50;;;;;;;19.12;100.00;96849.56;5032796;28;102350;-62
2022/08/06 06:05:55;;;;;;;3.93;3.50;;;;;;;19.09;100.00;96850.94;5032329;28;103202;-62
2022/08/06 06:08:22;;;;;;;3.67;3.37;;;;;;;19.10;100.00;96852.53;5032740;28;101890;-62
2022/08/06 06:10:50;;;;;;;4.17;3.23;;;;;;;19.13;100.00;96851.94;5031221;28;105271;-62
2022/08/06 06:13:17;;;;;;;3.83;3.27;;;;;;;19.09;100.00;96853.66;5030697;28;106028;-62
2022/08/06 06:15:50;;;;;;;4.23;3.83;;;;;;;19.08;100.00;96853.94;5034413;28;101886;-62
2022/08/06 06:18:28;;;;;;;4.40;4.00;;;;;;;18.98;100.00;96854.88;5032121;27;102755;-62
2022/08/06 06:21:06;;;;;;;4.57;4.23;;;;;;;19.01;100.00;96865.06;5032739;27;102110;-62
2022/08/06 06:23:41;;;;;;;4.90;4.50;;;;;;;18.94;100.00;96858.44;5030804;28;105268;-62
2022/08/06 06:26:18;;;;;;;5.67;4.73;;;;;;;18.96;100.00;96861.66;5030465;28;106012;-62
2022/08/06 06:28:56;;;;;;;4.97;4.57;;;;;;;19.06;100.00;96861.50;5032444;28;101765;-62
2022/08/06 06:31:29;;;;;;;4.80;4.40;;;;;;;19.09;100.00;96863.63;5032583;27;102394;-62
2022/08/06 06:34:03;;;;;;;5.87;5.27;;;;;;;19.12;100.00;96863.81;5031893;28;102624;-62
2022/08/06 06:36:40;;;;;;;5.50;5.00;;;;;;;19.09;100.00;96872.50;5036071;28;101812;-62
2022/08/06 06:39:15;;;;;;;6.00;5.40;;;;;;;19.12;100.00;96871.13;5031591;28;102534;-62
2022/08/06 06:41:46;;;;;;;6.13;5.53;;;;;;;19.03;100.00;96873.66;5032387;28;101704;-62
2022/08/06 06:44:20;;;;;;;5.63;5.13;;;;;;;19.13;100.00;96878.13;5030855;28;105416;-62
2022/08/06 06:46:52;;;;;;;6.10;5.50;;;;;;;19.14;100.00;96877.03;5031880;28;103092;-62
2022/08/06 06:49:32;;;;;;;5.67;5.17;;;;;;;19.07;100.00;96887.38;5030747;28;101899;-62
2022/08/06 06:52:08;;;;;;;5.83;5.33;;;;;;;19.09;100.00;96887.88;5032278;28;102908;-62
2022/08/06 06:54:39;;;;;;;6.60;5.43;;;;;;;19.04;100.00;96880.69;5029985;28;106387;-62
2022/08/06 06:57:10;;;;;;;6.10;5.47;;;;;;;19.09;100.00;96886.00;5032299;28;101850;-62
2022/08/06 06:59:40;;;;;;;5.53;4.90;;;;;;;19.08;100.00;96892.47;5034963;27;102885;-62
2022/08/06 07:02:12;;;;;;;5.47;4.83;;;;;;;19.09;100.00;96885.19;5030582;28;101805;-62
2022/08/06 07:04:40;;;;;;;5.40;4.90;;;;;;;19.15;100.00;96898.31;5029236;27;105082;-62
2022/08/06 07:07:10;;;;;;;5.07;4.67;;;;;;;19.09;100.00;96894.09;5031453;28;102633;-62
2022/08/06 07:09:39;;;;;;;4.90;4.50;;;;;;;19.02;100.00;96903.63;5031595;28;101808;-62
2022/08/06 07:12:08;;;;;;;9.37;7.60;;;;;;;18.73;100.00;96905.63;5031921;28;102420;-62
2022/08/06 07:14:37;;;;;;;8.13;7.33;;;;;;;18.38;100.00;96908.75;5031063;28;102831;-62
2022/08/06 07:17:06;;;;;;;8.80;7.90;;;;;;;18.32;100.00;96920.66;5031555;28;101871;-62
2022/08/06 07:19:34;;;;;;;9.77;8.67;;;;;;;18.30;100.00;96929.00;5031497;28;102335;-62
2022/08/06 07:22:03;;;;;;;9.73;8.77;;;;;;;18.22;100.00;96916.16;5034267;28;104268;-62
2022/08/06 07:24:34;;;;;;;11.00;7.73;;;;;;;18.30;100.00;96928.19;5029880;28;105341;-62
2022/08/06 07:27:03;;;;;;;10.33;8.43;;;;;;;18.27;100.00;96921.50;5029578;28;106221;-62
2022/08/06 07:29:31;;;;;;;11.10;8.13;;;;;;;18.23;100.00;96925.84;5029839;28;102029;-62
2022/08/06 07:32:00;;;;;;;10.27;8.40;;;;;;;18.25;100.00;96931.75;5030033;28;105749;-62
2022/08/06 07:34:28;;;;;;;11.37;8.50;;;;;;;18.26;100.00;96927.94;5029236;28;104246;-62
2022/08/06 07:36:57;;;;;;;10.07;9.00;;;;;;;18.38;100.00;96933.00;5030071;28;102167;-62
2022/08/06 07:39:28;;;;;;;8.97;8.17;;;;;;;18.32;100.00;96931.44;5031168;28;102533;-62
2022/08/06 07:41:59;;;;;;;9.43;8.53;;;;;;;18.27;100.00;96934.16;5030844;28;102586;-62
2022/08/06 07:44:28;;;;;;;9.53;8.13;;;;;;;18.21;100.00;96940.69;5033334;28;101810;-62
2022/08/06 07:46:59;;;;;;;9.07;8.17;;;;;;;18.23;100.00;96936.63;5029291;28;105465;-62
2022/08/06 07:49:35;;;;;;;11.80;8.93;;;;;;;18.16;100.00;96938.03;5031274;27;101803;-62
2022/08/06 07:52:03;;;;;;;9.53;8.63;;;;;;;18.20;100.00;96947.16;5029346;28;105170;-62
2022/08/06 07:54:31;;;;;;;12.53;8.77;;;;;;;18.11;100.00;96941.59;5029081;28;105426;-62
2022/08/06 07:57:00;;;;;;;13.47;9.67;;;;;;;18.22;100.00;96944.97;5029666;28;101970;-62
2022/08/06 07:59:28;;;;;;;10.77;8.33;;;;;;;18.31;100.00;96948.66;5029462;28;105609;-62
2022/08/06 08:01:55;;;;;;;9.33;7.90;;;;;;;18.36;100.00;96954.81;5030386;27;103202;-62
2022/08/06 08:07:09;;;;;;;8.50;7.67;;;;;;;18.03;100.00;96955.66;5032207;28;106263;-62
2022/08/06 08:09:37;;;;;;;8.77;7.83;;;;;;;18.07;100.00;96961.25;5030928;27;102048;-62
2022/08/06 08:12:08;;;;;;;9.13;8.23;;;;;;;18.09;100.00;96964.50;5030876;28;102911;-62
2022/08/06 08:14:35;;;;;;;10.10;7.90;;;;;;;18.18;100.00;96965.47;5028637;28;105365;-62
2022/08/06 08:17:02;;;;;;;8.20;7.50;;;;;;;17.95;100.00;96974.28;5029175;28;101878;-62
2022/08/06 08:19:32;;;;;;;9.20;8.30;;;;;;;17.83;100.00;96969.28;5030557;28;102443;-62
2022/08/06 08:22:00;;;;;;;8.70;8.00;;;;;;;17.79;100.00;96970.94;5029861;28;103324;-62
2022/08/06 08:24:31;;;;;;;8.80;8.00;;;;;;;17.83;100.00;96971.97;5030221;28;101788;-62
2022/08/06 08:26:58;;;;;;;9.40;8.50;;;;;;;17.91;100.00;96971.38;5029314;28;105123;-62
2022/08/06 08:29:27;;;;;;;8.87;8.07;;;;;;;17.72;100.00;96978.50;5033259;28;103120;-62
2022/08/06 08:31:55;;;;;;;10.47;9.40;;;;;;;17.85;100.00;96979.75;5030435;28;102331;-62
2022/08/06 08:34:23;;;;;;;9.97;9.07;;;;;;;17.88;100.00;96985.38;5029588;27;102633;-62
2022/08/06 08:36:50;;;;;;;9.97;9.00;;;;;;;17.96;100.00;96989.34;5029006;28;101931;-62
2022/08/06 08:39:17;;;;;;;10.43;9.63;;;;;;;18.09;100.00;96988.72;5029050;28;105127;-62
2022/08/06 08:41:47;;;;;;;10.53;9.53;;;;;;;17.90;100.00;96988.59;5029522;28;102779;-62
2022/08/06 08:44:20;;;;;;;10.17;9.37;;;;;;;17.90;100.00;96990.47;5029092;28;101976;-62
2022/08/06 08:46:50;;;;;;;9.87;8.97;;;;;;;17.91;100.00;96986.69;5029114;28;105938;-62
2022/08/06 08:49:21;;;;;;;10.27;9.37;;;;;;;17.57;100.00;96993.97;5033074;27;103141;-62
2022/08/06 08:51:49;;;;;;;10.37;9.47;;;;;;;17.70;100.00;96988.75;5030635;28;102323;-62
2022/08/06 08:54:22;;;;;;;11.40;10.40;;;;;;;17.72;100.00;96996.56;5029319;28;104396;-62
2022/08/06 08:56:50;;;;;;;11.07;10.07;;;;;;;17.66;100.00;97005.75;5029422;27;101677;-62
2022/08/06 08:59:17;;;;;;;10.83;10.00;;;;;;;17.48;100.00;97001.81;5027585;28;105112;-62
2022/08/06 09:01:45;;;;;;;10.53;9.63;;;;;;;17.48;100.00;96998.31;5028758;28;102527;-62
2022/08/06 09:04:14;;;;;;;10.33;9.53;;;;;;;17.38;100.00;97004.56;5028655;28;102152;-62
2022/08/06 09:06:43;;;;;;;10.83;9.93;;;;;;;17.25;100.00;97007.03;5028563;28;105681;-62
2022/08/06 09:09:10;;;;;;;10.90;10.03;;;;;;;17.31;100.00;97008.59;5029567;28;103131;-62
2022/08/06 09:11:39;;;;;;;11.87;10.77;;;;;;;17.31;100.00;97016.69;5031088;28;102034;-62
2022/08/06 09:14:08;;;;;;;11.33;10.23;;;;;;;17.12;100.00;97013.81;5028298;27;103163;-62
2022/08/06 09:16:37;;;;;;;11.83;10.73;;;;;;;17.09;100.00;97018.94;5029162;28;101997;-62
2022/08/06 09:19:06;;;;;;;10.63;9.80;;;;;;;17.22;100.00;97018.34;5028342;28;102582;-62
2022/08/06 09:21:35;;;;;;;10.47;9.60;;;;;;;17.38;100.00;97012.63;5027914;28;105898;-62
2022/08/06 09:24:02;;;;;;;10.57;9.67;;;;;;;17.16;100.00;97027.53;5029298;28;102005;-62
2022/08/06 09:26:33;;;;;;;8.87;8.17;;;;;;;17.13;100.00;97022.69;5029708;27;102533;-62
2022/08/06 09:29:00;;;;;;;8.47;7.87;;;;;;;17.25;100.00;97009.72;5031278;28;105494;-62
2022/08/06 09:31:28;;;;;;;7.93;7.20;;;;;;;17.17;100.00;97018.38;5033379;28;101744;-62
2022/08/06 09:33:58;;;;;;;7.07;6.40;;;;;;;17.17;100.00;97021.84;5035753;28;102372;-62
2022/08/06 09:36:25;;;;;;;7.10;6.50;;;;;;;17.39;100.00;97021.53;5033640;28;102086;-62
2022/08/06 09:38:56;;;;;;;6.13;5.63;;;;;;;17.62;100.00;97023.53;5033220;28;102952;-62
2022/08/06 09:41:25;;;;;;;5.33;4.93;;;;;;;17.20;100.00;97024.00;5032731;27;102682;-62
2022/08/06 09:43:55;;;;;;;5.47;5.07;;;;;;;17.16;100.00;97024.84;5033166;27;101879;-62
2022/08/06 09:46:37;;;;;;;5.33;5.03;;;;;;;17.02;100.00;97039.94;5033107;28;101815;-62
2022/08/06 09:49:04;;;;;;;4.53;4.23;;;;;;;16.97;100.00;97032.72;5032605;27;103174;-62
2022/08/06 09:51:34;;;;;;;5.70;4.93;;;;;;;17.03;100.00;97038.84;5031611;28;102017;-62
2022/08/06 09:54:06;;;;;;;4.67;4.33;;;;;;;16.93;100.00;97039.72;5032842;28;102814;-62
2022/08/06 09:56:34;;;;;;;4.63;4.23;;;;;;;17.08;100.00;97045.03;5035950;28;103190;-62
2022/08/06 09:59:02;;;;;;;4.37;3.80;;;;;;;17.13;100.00;97039.63;5032484;28;102824;-62
2022/08/06 10:01:30;;;;;;;4.70;4.40;;;;;;;17.04;100.00;97048.53;5032223;27;102531;-62
2022/08/06 10:03:58;;;;;;;4.67;4.37;;;;;;;17.04;100.00;97045.84;5032661;28;101875;-62
2022/08/06 10:06:26;;;;;;;3.50;3.30;;;;;;;16.96;100.00;97057.16;5032668;28;103922;-62
2022/08/06 10:09:10;;;;;;;3.67;3.30;;;;;;;17.02;100.00;97056.88;5031923;27;103094;-62
2022/08/06 10:11:39;;;;;;;3.80;2.53;;;;;;;16.95;100.00;97061.72;5032612;27;101760;-62
2022/08/06 10:14:21;;;;;;;3.30;3.00;;;;;;;17.15;100.00;97058.16;5032537;28;102509;-62
2022/08/06 10:17:07;;;;;;;3.10;2.90;;;;;;;17.22;100.00;97064.06;5031977;27;103092;-62
2022/08/06 10:19:34;;;;;;;3.10;2.90;;;;;;;17.31;100.00;97067.75;5034651;28;101863;-62
2022/08/06 10:22:05;;;;;;;4.00;2.43;;;;;;;17.16;100.00;97068.63;5030452;28;105484;-62
2022/08/06 10:24:37;;;;;;;1.60;1.50;;;;;;;16.90;100.00;97069.00;5032292;28;101886;-62
2022/08/06 10:27:07;;;;;;;1.27;1.23;;;;;;;16.80;100.00;97077.09;5032742;28;102261;-62
2022/08/06 10:29:40;;;;;;;1.50;1.40;;;;;;;16.75;100.00;97069.84;5030184;28;105500;-62
2022/08/06 10:32:10;;;;;;;1.23;1.03;;;;;;;16.89;100.00;97075.47;5032583;28;101693;-62
2022/08/06 10:34:38;;;;;;;0.83;0.83;;;;;;;16.94;100.00;97078.13;5030792;28;105411;-62
2022/08/06 10:37:07;;;;;;;0.80;0.80;;;;;;;17.02;100.00;97078.38;5030081;28;105376;-62
2022/08/06 10:39:38;;;;;;;0.77;0.77;;;;;;;16.98;100.00;97079.19;5030845;27;101940;-62
2022/08/06 10:42:06;;;;;;;1.53;0.90;;;;;;;16.92;100.00;97089.16;5035277;28;102305;-62
2022/08/06 10:44:35;;;;;;;1.13;1.13;;;;;;;16.77;100.00;97083.00;5032169;28;102248;-62
2022/08/06 10:47:04;;;;;;;1.07;1.07;;;;;;;16.79;100.00;97078.97;5030784;28;105124;-62
2022/08/06 10:49:33;;;;;;;1.20;1.20;;;;;;;17.02;100.00;97099.06;5031188;27;103034;-62
2022/08/06 10:52:01;;;;;;;1.50;1.40;;;;;;;16.92;100.00;97088.34;5032221;28;102069;-62
2022/08/06 10:54:28;;;;;;;1.37;1.27;;;;;;;16.88;100.00;97092.63;5031870;28;102313;-62
2022/08/06 10:56:57;;;;;;;1.40;1.30;;;;;;;16.72;100.00;97091.06;5031637;28;102643;-62
2022/08/06 10:59:25;;;;;;;1.97;1.80;;;;;;;16.92;100.00;97099.09;5030352;28;101913;-62
2022/08/06 11:02:00;;;;;;;1.43;1.43;;;;;;;16.73;100.00;97090.78;5034742;28;102334;-62
2022/08/06 11:04:39;;;;;;;1.80;1.70;;;;;;;16.82;100.00;97091.84;5032062;27;101702;-62
2022/08/06 11:07:20;;;;;;;1.83;1.80;;;;;;;16.89;100.00;97086.22;5064342;27;106170;-62
2022/08/06 11:10:12;;;;;;;2.50;2.30;;;;;;;16.91;100.00;97092.09;5031292;27;102577;-62
2022/08/06 11:12:50;;;;;;;2.50;2.40;;;;;;;16.94;100.00;97084.31;5031718;28;101809;-62
2022/08/06 11:15:17;;;;;;;2.60;2.50;;;;;;;16.97;100.00;97085.63;5031831;28;102309;-62
2022/08/06 11:17:46;;;;;;;2.43;2.33;;;;;;;16.92;100.00;97088.34;5031114;28;102627;-62
2022/08/06 11:20:39;;;;;;;3.23;2.60;;;;;;;16.96;100.00;97092.88;5030239;28;101981;-62
2022/08/06 11:23:23;;;;;;;2.60;2.50;;;;;;;17.05;100.00;97082.41;5031339;28;102537;-62
2022/08/06 11:25:52;;;;;;;3.20;3.00;;;;;;;17.00;100.00;97087.78;5034259;28;103133;-62
2022/08/06 11:29:01;;;;;;;3.33;3.13;;;;;;;17.12;100.00;97081.00;5031294;28;102607;-62
2022/08/06 11:31:34;;;;;;;3.40;3.20;;;;;;;17.03;100.00;97084.53;5030993;27;103669;-62
2022/08/06 11:34:05;;;;;;;2.90;2.80;;;;;;;17.07;100.00;97085.59;5031559;28;101690;-62